TimeCST,TemperatureF,Dew PointF,Humidity,Sea Level PressureIn,VisibilityMPH,Wind Direction,Wind SpeedMPH,Gust SpeedMPH,PrecipitationIn,Events,Conditions,WindDirDegrees,DateUTC
12:53 AM,19.0,5.0,54,29.95,10.0,WNW,25.3,41.4,N/A,,Clear,300,2013-01-20 06:53:00
1:53 AM,17.1,5.0,59,30.01,10.0,WNW,17.3,28.8,N/A,,Mostly Cloudy,300,2013-01-20 07:53:00
2:12 AM,15.8,3.2,58,30.00,10.0,WNW,21.9,38.0,N/A,,Mostly Cloudy,300,2013-01-20 08:12:00
2:22 AM,15.8,3.2,58,30.01,10.0,WNW,27.6,38.0,N/A,,Scattered Clouds,300,2013-01-20 08:22:00
2:53 AM,14.0,-0.9,52,30.07,10.0,WNW,26.5,38.0,N/A,,Clear,300,2013-01-20 08:53:00
3:53 AM,12.0,-2.0,53,30.13,10.0,WNW,24.2,34.5,N/A,,Clear,300,2013-01-20 09:53:00
4:53 AM,10.9,-2.9,54,30.17,10.0,WNW,18.4,27.6,N/A,,Clear,300,2013-01-20 10:53:00
5:53 AM,10.0,-2.0,58,30.20,10.0,WNW,17.3,23.0,N/A,,Clear,300,2013-01-20 11:53:00
6:53 AM,9.0,-2.0,61,30.23,10.0,NW,15.0,21.9,N/A,,Clear,320,2013-01-20 12:53:00
7:53 AM,9.0,-2.0,61,30.27,10.0,WNW,11.5,-,N/A,,Clear,290,2013-01-20 13:53:00
8:53 AM,10.9,-2.0,56,30.29,10.0,WNW,18.4,23.0,N/A,,Clear,290,2013-01-20 14:53:00
9:53 AM,12.9,-0.9,54,30.30,10.0,WNW,13.8,19.6,N/A,,Clear,300,2013-01-20 15:53:00
10:53 AM,14.0,-0.9,52,30.31,10.0,WNW,12.7,18.4,N/A,,Clear,290,2013-01-20 16:53:00
11:53 AM,16.0,-0.0,49,30.30,10.0,West,11.5,20.7,N/A,,Clear,280,2013-01-20 17:53:00
12:53 PM,18.0,-0.9,44,30.28,10.0,WNW,16.1,-,N/A,,Clear,300,2013-01-20 18:53:00
1:53 PM,17.1,-2.0,43,30.27,10.0,WNW,13.8,-,N/A,,Clear,290,2013-01-20 19:53:00
2:53 PM,17.1,-2.0,43,30.27,10.0,West,11.5,18.4,N/A,,Mostly Cloudy,280,2013-01-20 20:53:00
3:53 PM,16.0,-2.0,45,30.27,10.0,WNW,11.5,-,N/A,,Mostly Cloudy,300,2013-01-20 21:53:00
4:53 PM,15.1,-0.9,49,30.27,10.0,WNW,8.1,-,N/A,,Mostly Cloudy,300,2013-01-20 22:53:00
5:53 PM,15.1,-0.9,49,30.28,10.0,WNW,6.9,-,N/A,,Overcast,300,2013-01-20 23:53:00
6:53 PM,12.9,-0.9,54,30.28,10.0,WNW,5.8,-,N/A,,Scattered Clouds,290,2013-01-21 00:53:00
7:53 PM,9.0,-0.0,67,30.27,10.0,West,3.5,-,N/A,,Mostly Cloudy,270,2013-01-21 01:53:00
8:53 PM,10.9,1.9,67,30.25,10.0,West,5.8,-,N/A,,Mostly Cloudy,270,2013-01-21 02:53:00
9:53 PM,10.9,-0.0,61,30.24,10.0,WNW,6.9,-,N/A,,Mostly Cloudy,290,2013-01-21 03:53:00
10:53 PM,12.9,1.0,59,30.22,10.0,West,6.9,-,N/A,,Overcast,280,2013-01-21 04:53:00
11:53 PM,12.0,-0.0,59,30.20,10.0,West,8.1,-,N/A,,Overcast,280,2013-01-21 05:53:00